createdAt,value
2023-01-17T00:00:46.400Z,2.48
2023-01-17T00:03:15.865Z,2.30
2023-01-17T00:06:03.522Z,2.42
2023-01-17T00:08:37.774Z,2.43
2023-01-17T00:11:08.099Z,2.22
2023-01-17T00:13:38.222Z,2.23
2023-01-17T00:16:08.093Z,2.13
2023-01-17T00:18:37.838Z,2.08
2023-01-17T00:21:25.608Z,2.21
2023-01-17T00:24:13.577Z,2.20
2023-01-17T00:27:01.587Z,2.10
2023-01-17T00:29:30.972Z,2.10
2023-01-17T00:32:00.039Z,2.04
2023-01-17T00:34:29.190Z,1.81
2023-01-17T00:36:58.229Z,1.95
2023-01-17T00:39:27.214Z,2.09
2023-01-17T00:41:56.264Z,1.91
2023-01-17T00:44:44.191Z,1.88
2023-01-17T00:47:32.125Z,1.99
2023-01-17T00:50:20.009Z,1.76
2023-01-17T00:53:07.995Z,1.93
2023-01-17T00:55:55.596Z,1.69
2023-01-17T00:58:42.988Z,1.69
2023-01-17T01:01:31.046Z,1.76
2023-01-17T01:04:18.700Z,1.76
2023-01-17T01:07:06.364Z,1.69
2023-01-17T01:09:54.179Z,1.85
2023-01-17T01:12:41.525Z,1.82
2023-01-17T01:15:29.289Z,1.77
2023-01-17T01:18:16.522Z,1.75
2023-01-17T01:21:04.472Z,1.55
2023-01-17T01:23:51.855Z,1.73
2023-01-17T01:26:39.340Z,1.66
2023-01-17T01:29:26.912Z,1.48
2023-01-17T01:32:14.216Z,1.69
2023-01-17T01:34:44.276Z,1.68
2023-01-17T01:37:13.765Z,1.74
2023-01-17T01:39:43.542Z,1.68
2023-01-17T01:42:15.598Z,1.77
2023-01-17T01:44:50.894Z,1.71
2023-01-17T01:47:23.587Z,1.76
2023-01-17T01:49:53.675Z,1.75
2023-01-17T01:52:26.656Z,1.45
2023-01-17T01:55:05.248Z,1.57
2023-01-17T01:57:38.078Z,1.48
2023-01-17T02:00:11.669Z,1.61
2023-01-17T02:02:44.449Z,1.68
2023-01-17T02:05:17.743Z,1.69
2023-01-17T02:07:50.661Z,1.71
2023-01-17T02:10:20.533Z,1.65
2023-01-17T02:12:52.838Z,1.82
2023-01-17T02:15:25.554Z,1.80
2023-01-17T02:18:06.964Z,1.90
2023-01-17T02:20:45.757Z,1.76
2023-01-17T02:23:36.409Z,2.00
2023-01-17T02:26:29.362Z,1.99
2023-01-17T02:29:25.077Z,1.73
2023-01-17T02:32:18.868Z,2.03
2023-01-17T02:34:54.390Z,1.99
2023-01-17T02:37:34.809Z,2.21
2023-01-17T02:40:14.283Z,2.31
2023-01-17T02:42:47.103Z,2.48
2023-01-17T02:45:19.149Z,2.43
2023-01-17T02:47:49.106Z,2.40
2023-01-17T02:50:24.519Z,2.31
2023-01-17T02:52:57.339Z,2.27
2023-01-17T02:55:47.013Z,2.26
2023-01-17T02:58:19.847Z,2.22
2023-01-17T03:01:04.524Z,2.13
2023-01-17T03:03:51.993Z,2.19
2023-01-17T03:06:30.283Z,2.19
2023-01-17T03:09:00.325Z,2.19
2023-01-17T03:11:30.066Z,2.19
2023-01-17T03:13:59.998Z,2.12
2023-01-17T03:16:32.872Z,2.00
2023-01-17T03:19:02.977Z,2.05
2023-01-17T03:21:32.784Z,2.21
2023-01-17T03:24:03.125Z,2.33
2023-01-17T03:26:33.163Z,2.23
2023-01-17T03:29:03.009Z,2.26
2023-01-17T03:31:32.809Z,2.33
2023-01-17T03:34:02.632Z,2.33
2023-01-17T03:36:32.686Z,2.17
2023-01-17T03:39:02.937Z,2.23
2023-01-17T03:41:32.538Z,2.27
2023-01-17T03:44:02.297Z,2.19
2023-01-17T03:46:32.135Z,2.18
2023-01-17T03:49:02.211Z,2.27
2023-01-17T03:51:32.047Z,2.22
2023-01-17T03:54:01.803Z,1.99
2023-01-17T03:56:31.640Z,1.99
2023-01-17T03:59:01.742Z,1.83
2023-01-17T04:01:31.729Z,1.94
2023-01-17T04:04:01.559Z,1.94
2023-01-17T04:06:31.304Z,1.83
2023-01-17T04:09:01.086Z,1.80
2023-01-17T04:11:30.900Z,1.94
2023-01-17T04:14:00.706Z,1.90
2023-01-17T04:16:32.814Z,1.64
2023-01-17T04:19:02.699Z,1.77
2023-01-17T04:21:32.431Z,1.86
2023-01-17T04:24:02.246Z,1.69
2023-01-17T04:26:32.274Z,1.69
2023-01-17T04:29:02.021Z,1.69
2023-01-17T04:31:32.031Z,1.60
2023-01-17T04:34:02.176Z,1.33
2023-01-17T04:36:32.279Z,1.48
2023-01-17T04:39:02.115Z,1.44
2023-01-17T04:41:31.927Z,1.46
2023-01-17T04:44:01.942Z,1.64
2023-01-17T04:46:32.210Z,1.57
2023-01-17T04:49:01.828Z,1.66
2023-01-17T04:51:31.625Z,1.50
2023-01-17T04:54:01.351Z,1.37
2023-01-17T04:56:31.117Z,1.29
2023-01-17T04:59:00.855Z,1.29
2023-01-17T05:01:31.064Z,1.37
2023-01-17T05:04:01.265Z,1.46
2023-01-17T05:06:31.306Z,1.39
2023-01-17T05:09:02.730Z,1.31
2023-01-17T05:11:32.488Z,1.38
2023-01-17T05:14:02.235Z,1.56
2023-01-17T05:16:32.021Z,1.50
2023-01-17T05:19:02.234Z,1.69
2023-01-17T05:21:32.403Z,1.67
2023-01-17T05:24:02.197Z,1.73
2023-01-17T05:26:32.025Z,1.92
2023-01-17T05:29:01.771Z,1.71
2023-01-17T05:31:31.563Z,1.63
2023-01-17T05:34:01.363Z,1.63
2023-01-17T05:36:31.850Z,1.62
2023-01-17T05:39:01.887Z,1.78
2023-01-17T05:41:31.680Z,1.87
2023-01-17T05:44:01.398Z,1.99
2023-01-17T05:46:31.249Z,2.09
2023-01-17T05:49:01.005Z,1.90
2023-01-17T05:51:31.071Z,2.17
2023-01-17T05:54:00.814Z,2.10
2023-01-17T05:56:30.578Z,2.25
2023-01-17T05:59:00.625Z,2.26
2023-01-17T06:01:30.747Z,2.32
2023-01-17T06:04:00.491Z,2.35
2023-01-17T06:06:30.263Z,2.29
2023-01-17T06:09:00.060Z,2.28
2023-01-17T06:11:29.894Z,2.41
2023-01-17T06:13:59.634Z,2.36
2023-01-17T06:16:30.482Z,2.27
2023-01-17T06:19:00.357Z,2.36
2023-01-17T06:21:30.893Z,2.22
2023-01-17T06:24:01.836Z,2.36
2023-01-17T06:26:31.861Z,2.35
2023-01-17T06:29:02.663Z,2.43
2023-01-17T06:31:32.463Z,2.43
2023-01-17T06:34:05.657Z,2.30
2023-01-17T06:36:35.460Z,2.53
2023-01-17T06:39:06.204Z,2.51
2023-01-17T06:41:35.922Z,2.61
2023-01-17T06:44:07.763Z,2.60
2023-01-17T06:46:37.662Z,2.57
2023-01-17T06:49:07.197Z,2.65
2023-01-17T06:51:36.921Z,2.59
2023-01-17T06:54:07.090Z,2.80
2023-01-17T06:56:37.432Z,2.73
2023-01-17T06:59:07.191Z,2.77
2023-01-17T07:01:37.109Z,2.94
2023-01-17T07:04:07.399Z,3.06
2023-01-17T07:06:37.607Z,3.17
2023-01-17T07:09:07.093Z,3.25
2023-01-17T07:11:36.829Z,3.36
2023-01-17T07:14:08.670Z,3.39
2023-01-17T07:16:38.190Z,3.38
2023-01-17T07:19:07.967Z,3.34
2023-01-17T07:21:37.692Z,3.35
2023-01-17T07:24:07.776Z,3.39
2023-01-17T07:26:39.004Z,3.37
2023-01-17T07:29:08.560Z,3.39
2023-01-17T07:31:40.323Z,3.34
2023-01-17T07:34:10.765Z,3.37
2023-01-17T07:36:40.197Z,3.37
2023-01-17T07:39:11.049Z,3.45
2023-01-17T07:41:41.435Z,3.37
2023-01-17T07:44:12.750Z,3.35
2023-01-17T07:46:42.689Z,3.51
2023-01-17T07:49:12.545Z,3.40
2023-01-17T07:51:42.320Z,3.40
2023-01-17T07:54:13.307Z,3.36
2023-01-17T07:56:43.656Z,3.43
2023-01-17T07:59:14.190Z,3.41
2023-01-17T08:01:43.888Z,3.37
2023-01-17T08:04:14.610Z,3.47
2023-01-17T08:06:49.998Z,3.51
2023-01-17T08:09:19.549Z,3.53
2023-01-17T08:11:49.346Z,3.57
2023-01-17T08:14:19.142Z,3.48
2023-01-17T08:16:48.964Z,3.46
2023-01-17T08:19:18.598Z,3.49
2023-01-17T08:21:48.342Z,3.52
2023-01-17T08:24:17.813Z,3.64
2023-01-17T08:26:47.558Z,3.69
2023-01-17T08:29:18.504Z,3.72
2023-01-17T08:31:48.486Z,3.74
2023-01-17T08:34:18.526Z,3.79
2023-01-17T08:36:48.269Z,3.73
2023-01-17T08:39:17.821Z,3.84
2023-01-17T08:41:47.614Z,3.86
2023-01-17T08:44:18.568Z,4.03
2023-01-17T08:46:47.432Z,4.05
2023-01-17T08:49:17.109Z,4.43
2023-01-17T08:51:47.130Z,4.43
2023-01-17T08:54:17.166Z,4.52
2023-01-17T08:56:49.273Z,4.59
2023-01-17T08:59:18.856Z,4.98
2023-01-17T09:01:48.763Z,4.98
2023-01-17T09:04:18.383Z,5.13
2023-01-17T09:06:48.828Z,5.18
2023-01-17T09:09:19.117Z,5.14
2023-01-17T09:11:48.925Z,5.21
2023-01-17T09:14:18.756Z,5.28
2023-01-17T09:16:48.846Z,5.25
2023-01-17T09:19:18.650Z,5.33
2023-01-17T09:21:48.385Z,5.45
2023-01-17T09:24:18.164Z,5.60
2023-01-17T09:26:47.899Z,5.66
2023-01-17T09:29:18.649Z,5.84
2023-01-17T09:31:48.579Z,5.89
2023-01-17T09:34:18.792Z,6.10
2023-01-17T09:36:48.505Z,6.01
2023-01-17T09:39:18.133Z,6.23
2023-01-17T09:42:09.213Z,6.41
2023-01-17T09:44:47.350Z,6.38
2023-01-17T09:47:23.154Z,6.22
2023-01-17T09:49:56.500Z,6.27
2023-01-17T09:52:27.810Z,6.42
2023-01-17T09:54:57.656Z,6.87
2023-01-17T09:57:39.757Z,6.52
2023-01-17T10:00:35.188Z,6.46
2023-01-17T10:03:34.382Z,6.28
2023-01-17T10:06:26.667Z,6.26
2023-01-17T10:09:32.296Z,6.30
2023-01-17T10:12:13.736Z,6.30
2023-01-17T10:14:57.747Z,6.18
2023-01-17T10:17:51.400Z,6.14
2023-01-17T10:20:34.040Z,6.08
2023-01-17T10:23:29.431Z,6.07
2023-01-17T10:26:08.212Z,6.07
2023-01-17T10:28:52.875Z,6.23
2023-01-17T10:31:25.396Z,6.31
2023-01-17T10:33:57.355Z,6.40
2023-01-17T10:36:29.890Z,6.98
2023-01-17T10:39:05.190Z,7.83
2023-01-17T10:41:38.384Z,7.83
2023-01-17T10:44:30.729Z,7.78
2023-01-17T10:47:03.516Z,7.53
2023-01-17T10:49:33.686Z,7.42
2023-01-17T10:52:21.282Z,7.46
2023-01-17T10:54:54.223Z,7.92
2023-01-17T10:57:26.334Z,7.58
2023-01-17T10:59:58.853Z,7.67
2023-01-17T11:02:35.455Z,7.52
2023-01-17T11:05:09.618Z,7.35
2023-01-17T11:07:40.910Z,7.51
2023-01-17T11:10:13.702Z,7.24
2023-01-17T11:12:45.885Z,7.05
2023-01-17T11:15:19.864Z,6.92
2023-01-17T11:18:04.912Z,6.86
2023-01-17T11:20:40.105Z,7.28
2023-01-17T11:23:25.323Z,7.40
2023-01-17T11:26:02.628Z,7.24
2023-01-17T11:28:38.072Z,7.24
2023-01-17T11:31:16.807Z,7.58
2023-01-17T11:33:58.068Z,7.58
2023-01-17T11:36:32.557Z,7.31
2023-01-17T11:39:05.221Z,7.14
2023-01-17T11:41:42.719Z,7.23
2023-01-17T11:44:30.534Z,7.33
2023-01-17T11:47:15.013Z,7.25
2023-01-17T11:49:47.235Z,7.35
2023-01-17T11:52:26.252Z,7.62
2023-01-17T11:54:56.948Z,8.01
2023-01-17T11:57:35.871Z,8.08
2023-01-17T12:00:12.807Z,8.08
2023-01-17T12:03:06.372Z,8.12
2023-01-17T12:05:45.235Z,7.49
2023-01-17T12:08:23.929Z,7.49
2023-01-17T12:11:05.666Z,7.25
2023-01-17T12:14:02.331Z,7.32
2023-01-17T12:17:04.941Z,7.42
2023-01-17T12:19:46.303Z,7.76
2023-01-17T12:22:34.965Z,7.76
2023-01-17T12:25:27.015Z,7.43
2023-01-17T12:28:11.553Z,7.32
2023-01-17T12:31:07.399Z,7.93
2023-01-17T12:33:46.101Z,7.93
2023-01-17T12:36:24.449Z,7.37
2023-01-17T12:38:56.595Z,7.31
2023-01-17T12:41:29.084Z,7.16
2023-01-17T12:44:01.596Z,7.16
2023-01-17T12:46:44.105Z,7.32
2023-01-17T12:49:25.623Z,7.19
2023-01-17T12:52:00.997Z,7.23
2023-01-17T12:54:46.239Z,7.02
2023-01-17T12:57:21.534Z,7.05
2023-01-17T12:59:57.274Z,7.30
2023-01-17T13:02:31.754Z,7.10
2023-01-17T13:05:23.959Z,6.86
2023-01-17T13:08:05.597Z,6.86
2023-01-17T13:10:40.968Z,6.81
2023-01-17T13:13:27.795Z,6.66
2023-01-17T13:16:00.716Z,6.88
2023-01-17T13:18:32.553Z,6.97
2023-01-17T13:21:07.889Z,6.83
2023-01-17T13:23:52.547Z,6.91
2023-01-17T13:26:25.047Z,6.63
2023-01-17T13:29:17.070Z,6.74
2023-01-17T13:32:06.537Z,6.74
2023-01-17T13:34:47.988Z,6.88
2023-01-17T13:37:20.969Z,6.80
2023-01-17T13:40:05.613Z,6.92
2023-01-17T13:42:56.373Z,6.89
2023-01-17T13:45:29.060Z,6.79
2023-01-17T13:48:17.147Z,6.65
2023-01-17T13:50:50.276Z,6.74
2023-01-17T13:53:43.507Z,6.44
2023-01-17T13:56:21.642Z,6.51
2023-01-17T13:59:01.895Z,6.48
2023-01-17T14:01:39.131Z,6.34
2023-01-17T14:04:10.582Z,6.34
2023-01-17T14:06:46.806Z,6.28
2023-01-17T14:09:22.211Z,6.06
2023-01-17T14:12:11.574Z,6.10
2023-01-17T14:14:44.492Z,5.99
2023-01-17T14:17:23.112Z,5.90
2023-01-17T14:20:08.198Z,5.91
2023-01-17T14:22:40.817Z,5.88
2023-01-17T14:25:27.494Z,5.81
2023-01-17T14:28:02.913Z,5.77
2023-01-17T14:30:38.852Z,5.59
2023-01-17T14:33:17.375Z,5.49
2023-01-17T14:35:55.944Z,5.49
2023-01-17T14:38:28.765Z,5.50
2023-01-17T14:41:01.685Z,5.52
2023-01-17T14:43:34.810Z,5.42
2023-01-17T14:46:10.481Z,5.33
2023-01-17T14:48:42.419Z,5.31
2023-01-17T14:51:17.536Z,5.27
2023-01-17T14:53:59.279Z,5.14
2023-01-17T14:56:31.051Z,5.11
2023-01-17T14:59:09.622Z,4.90
2023-01-17T15:01:41.045Z,4.90
2023-01-17T15:04:22.596Z,4.74
2023-01-17T15:06:52.551Z,4.78
2023-01-17T15:09:25.352Z,4.52
2023-01-17T15:11:58.901Z,4.51
2023-01-17T15:14:32.268Z,4.42
2023-01-17T15:17:13.524Z,4.53
2023-01-17T15:19:43.821Z,4.39
2023-01-17T15:22:13.684Z,4.38
2023-01-17T15:24:45.650Z,4.37
2023-01-17T15:27:17.164Z,4.36
2023-01-17T15:29:48.306Z,4.28
2023-01-17T15:32:24.967Z,4.25
2023-01-17T15:34:54.682Z,4.22
2023-01-17T15:37:30.274Z,4.22
2023-01-17T15:40:08.702Z,4.00
2023-01-17T15:42:41.592Z,4.07
2023-01-17T15:45:17.136Z,4.05
2023-01-17T15:47:48.852Z,3.91
2023-01-17T15:50:26.253Z,3.65
2023-01-17T15:53:01.660Z,3.50
2023-01-17T15:55:39.431Z,3.41
2023-01-17T15:58:23.739Z,3.27
2023-01-17T16:00:53.586Z,3.14
2023-01-17T16:03:31.174Z,3.12
2023-01-17T16:06:03.842Z,3.04
2023-01-17T16:08:39.997Z,3.17
2023-01-17T16:11:12.455Z,2.82
2023-01-17T16:13:43.436Z,2.76
2023-01-17T16:16:16.337Z,2.76
2023-01-17T16:18:47.315Z,2.61
2023-01-17T16:21:22.658Z,2.35
2023-01-17T16:23:52.975Z,1.99
2023-01-17T16:26:23.169Z,1.99
2023-01-17T16:28:53.501Z,1.76
2023-01-17T16:31:23.150Z,1.56
2023-01-17T16:33:53.911Z,1.43
2023-01-17T16:36:22.907Z,1.32
2023-01-17T16:38:53.271Z,1.46
2023-01-17T16:41:23.052Z,1.06
2023-01-17T16:44:05.331Z,0.83
2023-01-17T16:46:36.791Z,0.67
2023-01-17T16:49:06.806Z,0.50
2023-01-17T16:51:36.694Z,0.57
2023-01-17T16:54:06.261Z,0.59
2023-01-17T16:56:36.022Z,0.44
2023-01-17T16:59:06.873Z,0.15
2023-01-17T17:01:36.797Z,0.16
2023-01-17T17:04:06.805Z,0.02
2023-01-17T17:06:36.561Z,-0.16
2023-01-17T17:09:06.649Z,-0.25
2023-01-17T17:11:36.443Z,-0.33
2023-01-17T17:14:06.528Z,-0.45
2023-01-17T17:16:36.289Z,-0.51
2023-01-17T17:19:08.889Z,-0.83
2023-01-17T17:21:38.735Z,-0.82
2023-01-17T17:24:08.465Z,-0.76
2023-01-17T17:26:39.103Z,-0.86
2023-01-17T17:29:11.983Z,-0.86
2023-01-17T17:31:43.152Z,-0.45
2023-01-17T17:34:14.309Z,-0.54
2023-01-17T17:36:44.808Z,-0.85
2023-01-17T17:39:15.683Z,-1.01
2023-01-17T17:41:46.590Z,-1.27
2023-01-17T17:44:15.264Z,-1.56
2023-01-17T17:46:46.554Z,-1.52
2023-01-17T17:49:18.412Z,-1.52
2023-01-17T17:51:48.343Z,-1.31
2023-01-17T17:54:19.041Z,-0.93
2023-01-17T17:56:48.989Z,-1.07
2023-01-17T17:59:19.380Z,-0.93
2023-01-17T18:01:49.818Z,-0.96
2023-01-17T18:04:21.442Z,-1.30
2023-01-17T18:06:51.251Z,-1.30
2023-01-17T18:09:21.084Z,-1.43
2023-01-17T18:11:50.883Z,-1.23
2023-01-17T18:14:22.298Z,-1.49
2023-01-17T18:16:52.485Z,-1.68
2023-01-17T18:19:24.819Z,-1.72
2023-01-17T18:21:55.020Z,-1.75
2023-01-17T18:24:26.044Z,-2.03
2023-01-17T18:26:57.368Z,-2.01
2023-01-17T18:29:28.078Z,-1.97
2023-01-17T18:31:57.779Z,-2.04
2023-01-17T18:34:33.758Z,-2.00
2023-01-17T18:37:03.288Z,-1.73
2023-01-17T18:39:33.091Z,-1.76
2023-01-17T18:42:03.025Z,-1.80
2023-01-17T18:44:32.824Z,-1.42
2023-01-17T18:47:04.731Z,-1.69
2023-01-17T18:49:35.221Z,-2.03
2023-01-17T18:52:07.905Z,-2.27
2023-01-17T18:54:37.687Z,-2.33
2023-01-17T18:57:07.131Z,-2.64
2023-01-17T18:59:36.937Z,-2.47
2023-01-17T19:02:07.060Z,-1.96
2023-01-17T19:04:37.755Z,-2.15
2023-01-17T19:07:07.558Z,-2.12
2023-01-17T19:09:38.505Z,-2.12
2023-01-17T19:12:08.607Z,-2.08
2023-01-17T19:14:38.820Z,-1.98
2023-01-17T19:17:08.593Z,-2.38
2023-01-17T19:19:38.489Z,-2.28
2023-01-17T19:22:08.572Z,-2.28
2023-01-17T19:24:38.353Z,-2.30
2023-01-17T19:27:08.606Z,-2.30
2023-01-17T19:29:39.550Z,-2.28
2023-01-17T19:32:09.604Z,-2.10
2023-01-17T19:34:39.403Z,-1.45
2023-01-17T19:37:08.948Z,-1.48
2023-01-17T19:39:38.849Z,-1.57
2023-01-17T19:42:10.126Z,-1.81
2023-01-17T19:44:39.928Z,-2.06
2023-01-17T19:47:11.180Z,-2.15
2023-01-17T19:49:42.485Z,-2.25
2023-01-17T19:52:13.020Z,-2.33
2023-01-17T19:54:42.466Z,-2.54
2023-01-17T19:57:12.208Z,-2.76
2023-01-17T19:59:41.996Z,-2.53
2023-01-17T20:02:11.842Z,-2.53
2023-01-17T20:04:41.958Z,-2.48
2023-01-17T20:07:11.458Z,-2.34
2023-01-17T20:09:40.928Z,-2.22
2023-01-17T20:12:11.014Z,-2.33
2023-01-17T20:14:40.875Z,-2.56
2023-01-17T20:17:10.538Z,-2.81
2023-01-17T20:19:39.991Z,-2.72
2023-01-17T20:22:09.652Z,-2.80
2023-01-17T20:24:39.490Z,-2.12
2023-01-17T20:27:09.019Z,-1.87
2023-01-17T20:29:40.202Z,-2.34
2023-01-17T20:32:09.708Z,-2.58
2023-01-17T20:34:39.487Z,-2.71
2023-01-17T20:37:09.004Z,-2.78
2023-01-17T20:39:39.244Z,-2.70
2023-01-17T20:42:09.038Z,-2.77
2023-01-17T20:44:38.519Z,-2.73
2023-01-17T20:47:08.415Z,-2.75
2023-01-17T20:49:38.066Z,-2.76
2023-01-17T20:52:07.685Z,-2.82
2023-01-17T20:54:37.311Z,-2.80
2023-01-17T20:57:07.512Z,-2.98
2023-01-17T20:59:36.982Z,-2.97
2023-01-17T21:02:09.146Z,-2.98
2023-01-17T21:04:38.872Z,-2.84
2023-01-17T21:07:08.689Z,-2.95
2023-01-17T21:09:38.718Z,-3.06
2023-01-17T21:12:08.567Z,-3.10
2023-01-17T21:14:39.964Z,-3.06
2023-01-17T21:17:10.049Z,-3.12
2023-01-17T21:19:39.707Z,-3.08
2023-01-17T21:22:09.518Z,-3.04
2023-01-17T21:24:39.184Z,-3.02
2023-01-17T21:27:09.123Z,-2.65
2023-01-17T21:29:38.679Z,-2.54
2023-01-17T21:32:08.930Z,-2.85
2023-01-17T21:34:38.572Z,-2.79
2023-01-17T21:37:08.372Z,-2.95
2023-01-17T21:39:38.671Z,-3.08
2023-01-17T21:42:08.804Z,-3.12
2023-01-17T21:44:38.322Z,-3.14
2023-01-17T21:47:08.115Z,-3.14
2023-01-17T21:49:37.901Z,-3.12
2023-01-17T21:52:09.019Z,-3.06
2023-01-17T21:54:56.827Z,-3.01
2023-01-17T21:57:44.567Z,-2.58
2023-01-17T22:00:15.653Z,-2.94
2023-01-17T22:02:45.310Z,-2.94
2023-01-17T22:05:16.938Z,-3.03
2023-01-17T22:08:04.985Z,-3.24
2023-01-17T22:10:36.136Z,-3.22
2023-01-17T22:13:06.522Z,-2.89
2023-01-17T22:15:36.427Z,-3.26
2023-01-17T22:18:07.136Z,-3.26
2023-01-17T22:20:41.530Z,-3.17
2023-01-17T22:23:11.892Z,-3.21
2023-01-17T22:25:41.841Z,-3.24
2023-01-17T22:28:11.347Z,-3.16
2023-01-17T22:30:40.900Z,-3.03
2023-01-17T22:33:10.678Z,-2.94
2023-01-17T22:35:40.237Z,-3.16
2023-01-17T22:38:10.566Z,-3.24
2023-01-17T22:40:40.031Z,-3.33
2023-01-17T22:43:09.995Z,-3.36
2023-01-17T22:45:39.841Z,-3.38
2023-01-17T22:48:10.268Z,-2.86
2023-01-17T22:50:40.120Z,-2.67
2023-01-17T22:53:10.359Z,-3.03
2023-01-17T22:55:39.923Z,-3.24
2023-01-17T22:58:09.565Z,-3.21
2023-01-17T23:00:39.031Z,-3.15
2023-01-17T23:03:08.982Z,-3.01
2023-01-17T23:05:40.202Z,-2.97
2023-01-17T23:08:09.677Z,-2.92
2023-01-17T23:10:57.282Z,-2.87
2023-01-17T23:13:27.055Z,-2.81
2023-01-17T23:16:14.620Z,-2.79
2023-01-17T23:19:01.932Z,-2.79
2023-01-17T23:21:33.025Z,-2.77
2023-01-17T23:24:03.473Z,-2.63
2023-01-17T23:26:32.926Z,-2.72
2023-01-17T23:29:02.404Z,-2.74
2023-01-17T23:31:32.228Z,-2.92
2023-01-17T23:34:02.040Z,-2.91
2023-01-17T23:36:31.816Z,-2.78
2023-01-17T23:39:01.357Z,-2.71
2023-01-17T23:41:50.104Z,-2.68
2023-01-17T23:44:19.580Z,-2.56
2023-01-17T23:46:49.383Z,-2.44
2023-01-17T23:49:18.949Z,-2.29
2023-01-17T23:51:50.477Z,-2.20
2023-01-17T23:54:20.675Z,-2.23
2023-01-17T23:56:50.600Z,-2.09
2023-01-17T23:59:20.400Z,-2.08
